sensor_id;sensor_type;location;lat;lon;timestamp;P1;durP1;ratioP1;P2;durP2;ratioP2
11439;SDS011;5776;51.814;4.510;2023-08-21T00:01:21;5.32;;;1.17;;
11439;SDS011;5776;51.814;4.510;2023-08-21T00:03:47;3.72;;;1.15;;
11439;SDS011;5776;51.814;4.510;2023-08-21T00:06:13;4.13;;;1.20;;
11439;SDS011;5776;51.814;4.510;2023-08-21T00:08:39;2.97;;;1.08;;
11439;SDS011;5776;51.814;4.510;2023-08-21T00:11:05;6.53;;;1.75;;
11439;SDS011;5776;51.814;4.510;2023-08-21T00:13:31;2.60;;;0.90;;
11439;SDS011;5776;51.814;4.510;2023-08-21T00:15:58;7.65;;;1.20;;
11439;SDS011;5776;51.814;4.510;2023-08-21T00:18:24;3.72;;;1.00;;
11439;SDS011;5776;51.814;4.510;2023-08-21T00:20:50;3.78;;;1.05;;
11439;SDS011;5776;51.814;4.510;2023-08-21T00:23:15;2.30;;;1.00;;
11439;SDS011;5776;51.814;4.510;2023-08-21T00:25:42;1.25;;;0.70;;
11439;SDS011;5776;51.814;4.510;2023-08-21T00:28:11;2.22;;;0.85;;
11439;SDS011;5776;51.814;4.510;2023-08-21T00:30:37;3.20;;;1.02;;
11439;SDS011;5776;51.814;4.510;2023-08-21T00:33:04;3.20;;;0.80;;
11439;SDS011;5776;51.814;4.510;2023-08-21T00:35:30;1.55;;;0.90;;
11439;SDS011;5776;51.814;4.510;2023-08-21T00:37:55;3.85;;;1.27;;
11439;SDS011;5776;51.814;4.510;2023-08-21T00:40:21;1.90;;;0.90;;
11439;SDS011;5776;51.814;4.510;2023-08-21T00:42:47;3.50;;;0.73;;
11439;SDS011;5776;51.814;4.510;2023-08-21T00:45:13;6.38;;;0.93;;
11439;SDS011;5776;51.814;4.510;2023-08-21T00:47:40;3.00;;;0.80;;
11439;SDS011;5776;51.814;4.510;2023-08-21T00:50:06;4.88;;;1.33;;
11439;SDS011;5776;51.814;4.510;2023-08-21T00:52:36;2.45;;;1.00;;
11439;SDS011;5776;51.814;4.510;2023-08-21T00:55:03;2.10;;;1.00;;
11439;SDS011;5776;51.814;4.510;2023-08-21T00:57:30;3.50;;;1.10;;
11439;SDS011;5776;51.814;4.510;2023-08-21T00:59:59;4.55;;;1.10;;
11439;SDS011;5776;51.814;4.510;2023-08-21T01:02:25;2.30;;;0.95;;
11439;SDS011;5776;51.814;4.510;2023-08-21T01:04:51;4.75;;;1.17;;
11439;SDS011;5776;51.814;4.510;2023-08-21T01:07:17;4.03;;;0.90;;
11439;SDS011;5776;51.814;4.510;2023-08-21T01:10:01;2.50;;;1.00;;
11439;SDS011;5776;51.814;4.510;2023-08-21T01:12:50;2.58;;;1.10;;
11439;SDS011;5776;51.814;4.510;2023-08-21T01:15:22;3.47;;;0.80;;
11439;SDS011;5776;51.814;4.510;2023-08-21T01:17:49;2.47;;;1.00;;
11439;SDS011;5776;51.814;4.510;2023-08-21T01:20:15;4.22;;;1.00;;
11439;SDS011;5776;51.814;4.510;2023-08-21T01:22:42;4.72;;;1.00;;
11439;SDS011;5776;51.814;4.510;2023-08-21T01:25:11;4.72;;;1.23;;
11439;SDS011;5776;51.814;4.510;2023-08-21T01:27:38;3.70;;;1.10;;
11439;SDS011;5776;51.814;4.510;2023-08-21T01:30:09;4.22;;;1.23;;
11439;SDS011;5776;51.814;4.510;2023-08-21T01:32:37;1.92;;;1.00;;
11439;SDS011;5776;51.814;4.510;2023-08-21T01:35:05;1.63;;;0.68;;
11439;SDS011;5776;51.814;4.510;2023-08-21T01:37:32;2.90;;;1.15;;
11439;SDS011;5776;51.814;4.510;2023-08-21T01:39:59;2.38;;;0.90;;
11439;SDS011;5776;51.814;4.510;2023-08-21T01:42:25;6.13;;;1.48;;
11439;SDS011;5776;51.814;4.510;2023-08-21T01:44:51;3.03;;;1.00;;
11439;SDS011;5776;51.814;4.510;2023-08-21T01:47:17;6.30;;;1.45;;
11439;SDS011;5776;51.814;4.510;2023-08-21T01:49:43;2.40;;;1.00;;
11439;SDS011;5776;51.814;4.510;2023-08-21T01:52:09;2.92;;;1.30;;
11439;SDS011;5776;51.814;4.510;2023-08-21T01:54:35;4.78;;;1.30;;
11439;SDS011;5776;51.814;4.510;2023-08-21T01:57:01;2.22;;;0.93;;
11439;SDS011;5776;51.814;4.510;2023-08-21T01:59:27;3.00;;;1.08;;
11439;SDS011;5776;51.814;4.510;2023-08-21T02:01:53;4.00;;;1.15;;
11439;SDS011;5776;51.814;4.510;2023-08-21T02:04:19;5.28;;;1.20;;
11439;SDS011;5776;51.814;4.510;2023-08-21T02:06:46;3.50;;;1.10;;
11439;SDS011;5776;51.814;4.510;2023-08-21T02:09:12;2.78;;;1.00;;
11439;SDS011;5776;51.814;4.510;2023-08-21T02:11:37;5.93;;;1.05;;
11439;SDS011;5776;51.814;4.510;2023-08-21T02:14:03;4.38;;;1.08;;
11439;SDS011;5776;51.814;4.510;2023-08-21T02:16:30;2.92;;;1.10;;
11439;SDS011;5776;51.814;4.510;2023-08-21T02:18:55;2.67;;;1.02;;
11439;SDS011;5776;51.814;4.510;2023-08-21T02:21:22;4.03;;;1.00;;
11439;SDS011;5776;51.814;4.510;2023-08-21T02:23:49;3.55;;;1.27;;
11439;SDS011;5776;51.814;4.510;2023-08-21T02:26:15;2.38;;;1.00;;
11439;SDS011;5776;51.814;4.510;2023-08-21T02:28:42;2.10;;;0.90;;
11439;SDS011;5776;51.814;4.510;2023-08-21T02:31:09;3.42;;;1.00;;
11439;SDS011;5776;51.814;4.510;2023-08-21T02:33:35;2.20;;;0.90;;
11439;SDS011;5776;51.814;4.510;2023-08-21T02:36:01;5.75;;;0.90;;
11439;SDS011;5776;51.814;4.510;2023-08-21T02:38:29;3.05;;;0.98;;
11439;SDS011;5776;51.814;4.510;2023-08-21T02:40:55;1.90;;;0.98;;
11439;SDS011;5776;51.814;4.510;2023-08-21T02:43:21;1.98;;;0.80;;
11439;SDS011;5776;51.814;4.510;2023-08-21T02:45:47;3.10;;;1.38;;
11439;SDS011;5776;51.814;4.510;2023-08-21T02:48:13;5.95;;;1.30;;
11439;SDS011;5776;51.814;4.510;2023-08-21T02:50:38;2.20;;;0.85;;
11439;SDS011;5776;51.814;4.510;2023-08-21T02:53:04;2.83;;;1.08;;
11439;SDS011;5776;51.814;4.510;2023-08-21T02:55:30;3.50;;;1.00;;
11439;SDS011;5776;51.814;4.510;2023-08-21T02:57:56;4.20;;;0.98;;
11439;SDS011;5776;51.814;4.510;2023-08-21T03:00:22;2.90;;;0.90;;
11439;SDS011;5776;51.814;4.510;2023-08-21T03:02:48;2.45;;;0.98;;
11439;SDS011;5776;51.814;4.510;2023-08-21T03:05:14;2.97;;;0.90;;
11439;SDS011;5776;51.814;4.510;2023-08-21T03:07:40;3.50;;;1.00;;
11439;SDS011;5776;51.814;4.510;2023-08-21T03:10:06;3.38;;;0.98;;
11439;SDS011;5776;51.814;4.510;2023-08-21T03:12:32;2.40;;;1.17;;
11439;SDS011;5776;51.814;4.510;2023-08-21T03:14:58;1.58;;;0.88;;
11439;SDS011;5776;51.814;4.510;2023-08-21T03:17:24;5.75;;;1.35;;
11439;SDS011;5776;51.814;4.510;2023-08-21T03:19:50;3.53;;;1.27;;
11439;SDS011;5776;51.814;4.510;2023-08-21T03:22:16;2.35;;;1.17;;
11439;SDS011;5776;51.814;4.510;2023-08-21T03:24:42;4.00;;;1.35;;
11439;SDS011;5776;51.814;4.510;2023-08-21T03:27:08;5.05;;;1.40;;
11439;SDS011;5776;51.814;4.510;2023-08-21T03:29:34;2.17;;;0.73;;
11439;SDS011;5776;51.814;4.510;2023-08-21T03:32:00;2.75;;;0.90;;
11439;SDS011;5776;51.814;4.510;2023-08-21T03:34:25;4.95;;;1.13;;
11439;SDS011;5776;51.814;4.510;2023-08-21T03:36:51;2.20;;;1.00;;
11439;SDS011;5776;51.814;4.510;2023-08-21T03:39:17;4.68;;;1.25;;
11439;SDS011;5776;51.814;4.510;2023-08-21T03:41:43;6.65;;;1.77;;
11439;SDS011;5776;51.814;4.510;2023-08-21T03:44:09;5.30;;;1.65;;
11439;SDS011;5776;51.814;4.510;2023-08-21T03:46:34;2.85;;;1.42;;
11439;SDS011;5776;51.814;4.510;2023-08-21T03:49:00;6.75;;;1.80;;
11439;SDS011;5776;51.814;4.510;2023-08-21T03:51:26;4.05;;;1.45;;
11439;SDS011;5776;51.814;4.510;2023-08-21T03:53:52;4.85;;;1.60;;
11439;SDS011;5776;51.814;4.510;2023-08-21T03:56:18;3.90;;;1.33;;
11439;SDS011;5776;51.814;4.510;2023-08-21T03:58:44;3.40;;;1.45;;
11439;SDS011;5776;51.814;4.510;2023-08-21T04:01:10;3.72;;;1.30;;
11439;SDS011;5776;51.814;4.510;2023-08-21T04:03:36;5.68;;;1.20;;
11439;SDS011;5776;51.814;4.510;2023-08-21T04:06:02;3.75;;;1.05;;
11439;SDS011;5776;51.814;4.510;2023-08-21T04:08:28;3.42;;;0.98;;
11439;SDS011;5776;51.814;4.510;2023-08-21T04:10:54;2.13;;;0.70;;
11439;SDS011;5776;51.814;4.510;2023-08-21T04:13:24;1.77;;;0.98;;
11439;SDS011;5776;51.814;4.510;2023-08-21T04:15:50;4.78;;;1.13;;
11439;SDS011;5776;51.814;4.510;2023-08-21T04:18:16;3.35;;;1.13;;
11439;SDS011;5776;51.814;4.510;2023-08-21T04:20:42;4.93;;;1.23;;
11439;SDS011;5776;51.814;4.510;2023-08-21T04:23:08;3.88;;;0.98;;
11439;SDS011;5776;51.814;4.510;2023-08-21T04:25:34;4.38;;;1.40;;
11439;SDS011;5776;51.814;4.510;2023-08-21T04:28:00;2.42;;;1.20;;
11439;SDS011;5776;51.814;4.510;2023-08-21T04:30:27;2.20;;;0.90;;
11439;SDS011;5776;51.814;4.510;2023-08-21T04:32:53;2.63;;;0.82;;
11439;SDS011;5776;51.814;4.510;2023-08-21T04:35:19;3.60;;;1.20;;
11439;SDS011;5776;51.814;4.510;2023-08-21T04:37:48;5.13;;;1.20;;
11439;SDS011;5776;51.814;4.510;2023-08-21T04:40:14;3.97;;;1.30;;
11439;SDS011;5776;51.814;4.510;2023-08-21T04:42:43;1.63;;;1.23;;
11439;SDS011;5776;51.814;4.510;2023-08-21T04:45:09;3.13;;;1.80;;
11439;SDS011;5776;51.814;4.510;2023-08-21T04:47:35;5.10;;;2.22;;
11439;SDS011;5776;51.814;4.510;2023-08-21T04:50:01;5.00;;;1.85;;
11439;SDS011;5776;51.814;4.510;2023-08-21T04:52:27;4.03;;;1.70;;
11439;SDS011;5776;51.814;4.510;2023-08-21T04:54:53;3.05;;;1.30;;
11439;SDS011;5776;51.814;4.510;2023-08-21T04:57:19;7.32;;;1.90;;
11439;SDS011;5776;51.814;4.510;2023-08-21T04:59:47;4.75;;;1.92;;
11439;SDS011;5776;51.814;4.510;2023-08-21T05:02:13;2.33;;;1.58;;
11439;SDS011;5776;51.814;4.510;2023-08-21T05:04:39;3.50;;;1.40;;
11439;SDS011;5776;51.814;4.510;2023-08-21T05:07:05;5.82;;;1.58;;
11439;SDS011;5776;51.814;4.510;2023-08-21T05:09:34;6.65;;;1.80;;
11439;SDS011;5776;51.814;4.510;2023-08-21T05:12:00;4.03;;;1.10;;
11439;SDS011;5776;51.814;4.510;2023-08-21T05:14:26;3.10;;;1.10;;
11439;SDS011;5776;51.814;4.510;2023-08-21T05:16:52;6.97;;;1.38;;
11439;SDS011;5776;51.814;4.510;2023-08-21T05:19:17;5.90;;;1.65;;
11439;SDS011;5776;51.814;4.510;2023-08-21T05:21:43;4.68;;;1.67;;
11439;SDS011;5776;51.814;4.510;2023-08-21T05:24:11;5.32;;;2.03;;
11439;SDS011;5776;51.814;4.510;2023-08-21T05:26:38;4.88;;;1.65;;
11439;SDS011;5776;51.814;4.510;2023-08-21T05:29:04;6.35;;;2.13;;
11439;SDS011;5776;51.814;4.510;2023-08-21T05:31:29;2.47;;;1.20;;
11439;SDS011;5776;51.814;4.510;2023-08-21T05:33:55;4.50;;;1.70;;
11439;SDS011;5776;51.814;4.510;2023-08-21T05:36:21;6.38;;;2.30;;
11439;SDS011;5776;51.814;4.510;2023-08-21T05:38:47;8.07;;;2.25;;
11439;SDS011;5776;51.814;4.510;2023-08-21T05:41:14;5.93;;;1.75;;
11439;SDS011;5776;51.814;4.510;2023-08-21T05:43:40;5.60;;;1.98;;
11439;SDS011;5776;51.814;4.510;2023-08-21T05:46:08;6.05;;;1.40;;
11439;SDS011;5776;51.814;4.510;2023-08-21T05:48:34;5.47;;;1.63;;
11439;SDS011;5776;51.814;4.510;2023-08-21T05:51:00;4.38;;;1.60;;
11439;SDS011;5776;51.814;4.510;2023-08-21T05:53:27;7.57;;;1.38;;
11439;SDS011;5776;51.814;4.510;2023-08-21T05:55:53;2.72;;;0.90;;
11439;SDS011;5776;51.814;4.510;2023-08-21T05:58:19;4.28;;;1.17;;
11439;SDS011;5776;51.814;4.510;2023-08-21T06:00:46;1.90;;;1.13;;
11439;SDS011;5776;51.814;4.510;2023-08-21T06:03:12;4.90;;;1.88;;
11439;SDS011;5776;51.814;4.510;2023-08-21T06:05:39;2.78;;;1.63;;
11439;SDS011;5776;51.814;4.510;2023-08-21T06:08:05;5.05;;;1.90;;
11439;SDS011;5776;51.814;4.510;2023-08-21T06:10:33;5.28;;;1.83;;
11439;SDS011;5776;51.814;4.510;2023-08-21T06:12:59;8.15;;;2.13;;
11439;SDS011;5776;51.814;4.510;2023-08-21T06:15:27;5.82;;;1.77;;
11439;SDS011;5776;51.814;4.510;2023-08-21T06:17:53;6.35;;;1.85;;
11439;SDS011;5776;51.814;4.510;2023-08-21T06:20:19;5.15;;;1.58;;
11439;SDS011;5776;51.814;4.510;2023-08-21T06:22:46;6.88;;;1.83;;
11439;SDS011;5776;51.814;4.510;2023-08-21T06:25:12;5.93;;;1.80;;
11439;SDS011;5776;51.814;4.510;2023-08-21T06:27:39;6.72;;;2.00;;
11439;SDS011;5776;51.814;4.510;2023-08-21T06:30:05;9.43;;;2.33;;
11439;SDS011;5776;51.814;4.510;2023-08-21T06:32:31;4.82;;;2.00;;
11439;SDS011;5776;51.814;4.510;2023-08-21T06:34:57;6.07;;;1.73;;
11439;SDS011;5776;51.814;4.510;2023-08-21T06:37:23;5.35;;;2.00;;
11439;SDS011;5776;51.814;4.510;2023-08-21T06:39:50;6.18;;;1.80;;
11439;SDS011;5776;51.814;4.510;2023-08-21T06:42:16;8.23;;;2.22;;
11439;SDS011;5776;51.814;4.510;2023-08-21T06:44:42;6.00;;;2.10;;
11439;SDS011;5776;51.814;4.510;2023-08-21T06:47:08;9.43;;;1.70;;
11439;SDS011;5776;51.814;4.510;2023-08-21T06:49:34;7.25;;;2.00;;
11439;SDS011;5776;51.814;4.510;2023-08-21T06:52:01;5.22;;;1.73;;
11439;SDS011;5776;51.814;4.510;2023-08-21T06:54:28;5.63;;;2.05;;
11439;SDS011;5776;51.814;4.510;2023-08-21T06:56:53;7.47;;;2.63;;
11439;SDS011;5776;51.814;4.510;2023-08-21T06:59:19;6.28;;;1.80;;
11439;SDS011;5776;51.814;4.510;2023-08-21T07:01:45;7.03;;;2.03;;
11439;SDS011;5776;51.814;4.510;2023-08-21T07:04:11;6.07;;;1.83;;
11439;SDS011;5776;51.814;4.510;2023-08-21T07:06:37;5.50;;;2.10;;
11439;SDS011;5776;51.814;4.510;2023-08-21T07:09:03;5.22;;;2.10;;
11439;SDS011;5776;51.814;4.510;2023-08-21T07:11:29;5.47;;;2.22;;
11439;SDS011;5776;51.814;4.510;2023-08-21T07:13:55;9.45;;;2.40;;
11439;SDS011;5776;51.814;4.510;2023-08-21T07:16:20;7.20;;;2.63;;
11439;SDS011;5776;51.814;4.510;2023-08-21T07:18:46;9.25;;;2.60;;
11439;SDS011;5776;51.814;4.510;2023-08-21T07:21:12;7.43;;;2.42;;
11439;SDS011;5776;51.814;4.510;2023-08-21T07:23:39;5.57;;;2.50;;
11439;SDS011;5776;51.814;4.510;2023-08-21T07:26:06;8.65;;;2.70;;
11439;SDS011;5776;51.814;4.510;2023-08-21T07:28:33;8.55;;;2.35;;
11439;SDS011;5776;51.814;4.510;2023-08-21T07:30:59;8.80;;;2.83;;
11439;SDS011;5776;51.814;4.510;2023-08-21T07:33:25;8.35;;;2.63;;
11439;SDS011;5776;51.814;4.510;2023-08-21T07:36:02;8.77;;;2.70;;
11439;SDS011;5776;51.814;4.510;2023-08-21T07:38:30;11.18;;;2.85;;
11439;SDS011;5776;51.814;4.510;2023-08-21T07:41:08;12.10;;;2.40;;
11439;SDS011;5776;51.814;4.510;2023-08-21T07:43:36;8.88;;;2.45;;
11439;SDS011;5776;51.814;4.510;2023-08-21T07:46:03;6.85;;;2.28;;
11439;SDS011;5776;51.814;4.510;2023-08-21T07:48:30;8.60;;;2.42;;
11439;SDS011;5776;51.814;4.510;2023-08-21T07:50:56;8.18;;;3.05;;
11439;SDS011;5776;51.814;4.510;2023-08-21T07:53:22;8.05;;;1.88;;
11439;SDS011;5776;51.814;4.510;2023-08-21T07:55:49;7.38;;;2.10;;
11439;SDS011;5776;51.814;4.510;2023-08-21T07:58:15;5.25;;;2.05;;
11439;SDS011;5776;51.814;4.510;2023-08-21T08:00:41;11.15;;;2.42;;
11439;SDS011;5776;51.814;4.510;2023-08-21T08:03:10;10.02;;;2.28;;
11439;SDS011;5776;51.814;4.510;2023-08-21T08:05:37;7.47;;;1.73;;
11439;SDS011;5776;51.814;4.510;2023-08-21T08:08:03;9.70;;;1.60;;
11439;SDS011;5776;51.814;4.510;2023-08-21T08:10:29;5.07;;;1.75;;
11439;SDS011;5776;51.814;4.510;2023-08-21T08:12:55;8.70;;;1.70;;
11439;SDS011;5776;51.814;4.510;2023-08-21T08:15:22;4.68;;;1.73;;
11439;SDS011;5776;51.814;4.510;2023-08-21T08:17:48;6.25;;;2.00;;
11439;SDS011;5776;51.814;4.510;2023-08-21T08:20:18;8.27;;;2.30;;
11439;SDS011;5776;51.814;4.510;2023-08-21T08:22:44;9.23;;;2.15;;
11439;SDS011;5776;51.814;4.510;2023-08-21T08:25:10;8.38;;;1.95;;
11439;SDS011;5776;51.814;4.510;2023-08-21T08:27:36;4.53;;;1.70;;
11439;SDS011;5776;51.814;4.510;2023-08-21T08:30:02;6.72;;;1.80;;
11439;SDS011;5776;51.814;4.510;2023-08-21T08:32:29;5.50;;;1.42;;
11439;SDS011;5776;51.814;4.510;2023-08-21T08:34:55;4.35;;;1.20;;
11439;SDS011;5776;51.814;4.510;2023-08-21T08:37:21;6.28;;;1.85;;
11439;SDS011;5776;51.814;4.510;2023-08-21T08:39:47;5.15;;;1.70;;
11439;SDS011;5776;51.814;4.510;2023-08-21T08:42:14;4.53;;;1.67;;
11439;SDS011;5776;51.814;4.510;2023-08-21T08:44:41;3.53;;;1.83;;
11439;SDS011;5776;51.814;4.510;2023-08-21T08:47:07;3.83;;;1.50;;
11439;SDS011;5776;51.814;4.510;2023-08-21T08:49:34;6.43;;;2.20;;
11439;SDS011;5776;51.814;4.510;2023-08-21T08:52:00;5.25;;;2.15;;
11439;SDS011;5776;51.814;4.510;2023-08-21T08:54:26;3.55;;;1.30;;
11439;SDS011;5776;51.814;4.510;2023-08-21T08:56:53;9.13;;;1.65;;
11439;SDS011;5776;51.814;4.510;2023-08-21T08:59:19;5.45;;;2.08;;
11439;SDS011;5776;51.814;4.510;2023-08-21T09:01:46;5.78;;;2.10;;
11439;SDS011;5776;51.814;4.510;2023-08-21T09:04:12;4.93;;;1.75;;
11439;SDS011;5776;51.814;4.510;2023-08-21T09:06:38;6.18;;;1.67;;
11439;SDS011;5776;51.814;4.510;2023-08-21T09:09:03;6.50;;;2.13;;
11439;SDS011;5776;51.814;4.510;2023-08-21T09:11:29;6.90;;;1.83;;
11439;SDS011;5776;51.814;4.510;2023-08-21T09:13:58;9.32;;;2.03;;
11439;SDS011;5776;51.814;4.510;2023-08-21T09:16:24;8.05;;;1.90;;
11439;SDS011;5776;51.814;4.510;2023-08-21T09:18:55;7.43;;;1.73;;
11439;SDS011;5776;51.814;4.510;2023-08-21T09:21:23;6.22;;;1.75;;
11439;SDS011;5776;51.814;4.510;2023-08-21T09:23:51;8.20;;;1.63;;
11439;SDS011;5776;51.814;4.510;2023-08-21T09:26:22;4.95;;;1.50;;
11439;SDS011;5776;51.814;4.510;2023-08-21T09:28:49;4.22;;;1.45;;
11439;SDS011;5776;51.814;4.510;2023-08-21T09:31:21;4.93;;;1.63;;
11439;SDS011;5776;51.814;4.510;2023-08-21T09:33:58;6.38;;;1.73;;
11439;SDS011;5776;51.814;4.510;2023-08-21T09:36:26;4.85;;;1.35;;
11439;SDS011;5776;51.814;4.510;2023-08-21T09:38:52;4.22;;;1.42;;
11439;SDS011;5776;51.814;4.510;2023-08-21T09:41:19;4.95;;;1.35;;
11439;SDS011;5776;51.814;4.510;2023-08-21T09:43:46;3.78;;;1.65;;
11439;SDS011;5776;51.814;4.510;2023-08-21T09:46:16;3.17;;;1.02;;
11439;SDS011;5776;51.814;4.510;2023-08-21T09:48:45;3.55;;;1.20;;
11439;SDS011;5776;51.814;4.510;2023-08-21T09:51:12;5.55;;;1.90;;
11439;SDS011;5776;51.814;4.510;2023-08-21T09:53:38;8.75;;;2.00;;
11439;SDS011;5776;51.814;4.510;2023-08-21T09:56:06;3.80;;;1.75;;
11439;SDS011;5776;51.814;4.510;2023-08-21T09:58:32;8.23;;;2.03;;
11439;SDS011;5776;51.814;4.510;2023-08-21T10:00:59;7.05;;;1.65;;
11439;SDS011;5776;51.814;4.510;2023-08-21T10:03:25;3.80;;;1.40;;
11439;SDS011;5776;51.814;4.510;2023-08-21T10:05:51;5.28;;;2.33;;
11439;SDS011;5776;51.814;4.510;2023-08-21T10:08:23;4.97;;;1.38;;
11439;SDS011;5776;51.814;4.510;2023-08-21T10:10:51;8.52;;;1.58;;
11439;SDS011;5776;51.814;4.510;2023-08-21T10:13:18;4.35;;;1.35;;
11439;SDS011;5776;51.814;4.510;2023-08-21T10:15:44;4.43;;;0.98;;
11439;SDS011;5776;51.814;4.510;2023-08-21T10:18:24;6.72;;;1.40;;
11439;SDS011;5776;51.814;4.510;2023-08-21T10:21:10;3.60;;;1.40;;
11439;SDS011;5776;51.814;4.510;2023-08-21T10:23:37;4.65;;;0.75;;
11439;SDS011;5776;51.814;4.510;2023-08-21T10:26:05;4.28;;;0.93;;
11439;SDS011;5776;51.814;4.510;2023-08-21T10:28:51;2.80;;;0.82;;
11439;SDS011;5776;51.814;4.510;2023-08-21T10:31:37;2.25;;;0.73;;
11439;SDS011;5776;51.814;4.510;2023-08-21T10:34:05;5.78;;;1.20;;
11439;SDS011;5776;51.814;4.510;2023-08-21T10:39:17;5.60;;;1.70;;
11439;SDS011;5776;51.814;4.510;2023-08-21T10:41:55;3.17;;;1.25;;
11439;SDS011;5776;51.814;4.510;2023-08-21T10:47:13;4.32;;;1.10;;
11439;SDS011;5776;51.814;4.510;2023-08-21T10:49:55;6.20;;;1.42;;
11439;SDS011;5776;51.814;4.510;2023-08-21T10:52:43;3.88;;;0.68;;
11439;SDS011;5776;51.814;4.510;2023-08-21T10:55:11;3.60;;;1.27;;
11439;SDS011;5776;51.814;4.510;2023-08-21T10:57:38;2.58;;;0.85;;
11439;SDS011;5776;51.814;4.510;2023-08-21T11:00:10;10.05;;;6.22;;
11439;SDS011;5776;51.814;4.510;2023-08-21T11:02:39;4.53;;;1.00;;
11439;SDS011;5776;51.814;4.510;2023-08-21T11:05:07;4.95;;;1.05;;
11439;SDS011;5776;51.814;4.510;2023-08-21T11:07:47;6.85;;;1.13;;
11439;SDS011;5776;51.814;4.510;2023-08-21T11:10:14;2.83;;;0.82;;
11439;SDS011;5776;51.814;4.510;2023-08-21T11:12:50;2.33;;;0.70;;
11439;SDS011;5776;51.814;4.510;2023-08-21T11:15:17;3.78;;;0.73;;
11439;SDS011;5776;51.814;4.510;2023-08-21T11:20:33;3.55;;;0.80;;
11439;SDS011;5776;51.814;4.510;2023-08-21T11:23:01;4.93;;;0.85;;
11439;SDS011;5776;51.814;4.510;2023-08-21T11:25:32;6.20;;;0.68;;
11439;SDS011;5776;51.814;4.510;2023-08-21T11:27:59;2.88;;;0.90;;
11439;SDS011;5776;51.814;4.510;2023-08-21T11:30:27;4.30;;;0.90;;
11439;SDS011;5776;51.814;4.510;2023-08-21T11:35:35;1.48;;;0.65;;
11439;SDS011;5776;51.814;4.510;2023-08-21T11:38:02;2.55;;;0.70;;
11439;SDS011;5776;51.814;4.510;2023-08-21T11:40:28;3.80;;;0.68;;
11439;SDS011;5776;51.814;4.510;2023-08-21T11:42:59;4.15;;;0.82;;
11439;SDS011;5776;51.814;4.510;2023-08-21T11:45:29;3.78;;;1.00;;
11439;SDS011;5776;51.814;4.510;2023-08-21T11:47:55;3.50;;;0.70;;
11439;SDS011;5776;51.814;4.510;2023-08-21T11:50:21;4.47;;;1.55;;
11439;SDS011;5776;51.814;4.510;2023-08-21T11:52:50;3.47;;;0.80;;
11439;SDS011;5776;51.814;4.510;2023-08-21T11:55:17;2.10;;;0.82;;
11439;SDS011;5776;51.814;4.510;2023-08-21T11:57:47;1.95;;;0.95;;
11439;SDS011;5776;51.814;4.510;2023-08-21T12:00:14;3.45;;;1.17;;
11439;SDS011;5776;51.814;4.510;2023-08-21T12:02:53;2.70;;;0.75;;
11439;SDS011;5776;51.814;4.510;2023-08-21T12:05:21;3.25;;;0.65;;
11439;SDS011;5776;51.814;4.510;2023-08-21T12:07:48;3.05;;;1.08;;
11439;SDS011;5776;51.814;4.510;2023-08-21T12:10:14;4.95;;;0.85;;
11439;SDS011;5776;51.814;4.510;2023-08-21T12:12:40;3.10;;;0.98;;
11439;SDS011;5776;51.814;4.510;2023-08-21T12:15:07;3.08;;;0.82;;
11439;SDS011;5776;51.814;4.510;2023-08-21T12:17:33;2.95;;;0.57;;
11439;SDS011;5776;51.814;4.510;2023-08-21T12:19:59;2.85;;;0.63;;
11439;SDS011;5776;51.814;4.510;2023-08-21T12:22:25;5.47;;;0.55;;
11439;SDS011;5776;51.814;4.510;2023-08-21T12:24:50;3.85;;;0.60;;
11439;SDS011;5776;51.814;4.510;2023-08-21T12:27:16;3.80;;;0.98;;
11439;SDS011;5776;51.814;4.510;2023-08-21T12:29:42;1.67;;;0.55;;
11439;SDS011;5776;51.814;4.510;2023-08-21T12:32:08;2.13;;;0.50;;
11439;SDS011;5776;51.814;4.510;2023-08-21T12:34:34;3.33;;;0.70;;
11439;SDS011;5776;51.814;4.510;2023-08-21T12:37:01;3.08;;;0.55;;
11439;SDS011;5776;51.814;4.510;2023-08-21T12:39:29;1.67;;;0.55;;
11439;SDS011;5776;51.814;4.510;2023-08-21T12:41:54;4.22;;;0.60;;
11439;SDS011;5776;51.814;4.510;2023-08-21T12:44:20;2.75;;;0.68;;
11439;SDS011;5776;51.814;4.510;2023-08-21T12:46:46;2.25;;;0.85;;
11439;SDS011;5776;51.814;4.510;2023-08-21T12:49:12;1.52;;;0.70;;
11439;SDS011;5776;51.814;4.510;2023-08-21T12:51:37;4.45;;;0.80;;
11439;SDS011;5776;51.814;4.510;2023-08-21T12:54:04;3.05;;;0.65;;
11439;SDS011;5776;51.814;4.510;2023-08-21T12:56:30;2.70;;;1.17;;
11439;SDS011;5776;51.814;4.510;2023-08-21T12:58:56;3.13;;;0.90;;
11439;SDS011;5776;51.814;4.510;2023-08-21T13:01:22;2.35;;;0.60;;
11439;SDS011;5776;51.814;4.510;2023-08-21T13:03:48;3.40;;;0.77;;
11439;SDS011;5776;51.814;4.510;2023-08-21T13:06:14;5.22;;;0.88;;
11439;SDS011;5776;51.814;4.510;2023-08-21T13:08:40;5.93;;;0.80;;
11439;SDS011;5776;51.814;4.510;2023-08-21T13:11:07;3.83;;;0.90;;
11439;SDS011;5776;51.814;4.510;2023-08-21T13:13:33;2.22;;;0.93;;
11439;SDS011;5776;51.814;4.510;2023-08-21T13:16:00;4.95;;;0.85;;
11439;SDS011;5776;51.814;4.510;2023-08-21T13:18:26;3.42;;;0.77;;
11439;SDS011;5776;51.814;4.510;2023-08-21T13:20:52;3.00;;;0.85;;
11439;SDS011;5776;51.814;4.510;2023-08-21T13:23:18;7.13;;;0.88;;
11439;SDS011;5776;51.814;4.510;2023-08-21T13:25:44;4.25;;;0.77;;
11439;SDS011;5776;51.814;4.510;2023-08-21T13:28:11;2.38;;;0.73;;
11439;SDS011;5776;51.814;4.510;2023-08-21T13:30:37;1.20;;;0.45;;
11439;SDS011;5776;51.814;4.510;2023-08-21T13:33:03;2.25;;;0.70;;
11439;SDS011;5776;51.814;4.510;2023-08-21T13:35:31;1.85;;;0.50;;
11439;SDS011;5776;51.814;4.510;2023-08-21T13:37:57;1.45;;;0.60;;
11439;SDS011;5776;51.814;4.510;2023-08-21T13:40:24;2.78;;;0.60;;
11439;SDS011;5776;51.814;4.510;2023-08-21T13:42:50;1.77;;;0.60;;
11439;SDS011;5776;51.814;4.510;2023-08-21T13:45:17;1.70;;;0.63;;
11439;SDS011;5776;51.814;4.510;2023-08-21T13:47:44;2.85;;;0.70;;
11439;SDS011;5776;51.814;4.510;2023-08-21T13:50:14;2.90;;;0.52;;
11439;SDS011;5776;51.814;4.510;2023-08-21T13:52:42;3.60;;;0.57;;
11439;SDS011;5776;51.814;4.510;2023-08-21T13:55:09;2.05;;;0.60;;
11439;SDS011;5776;51.814;4.510;2023-08-21T13:57:36;1.77;;;0.55;;
11439;SDS011;5776;51.814;4.510;2023-08-21T14:00:03;1.35;;;0.60;;
11439;SDS011;5776;51.814;4.510;2023-08-21T14:02:37;4.03;;;0.80;;
11439;SDS011;5776;51.814;4.510;2023-08-21T14:05:04;1.50;;;0.77;;
11439;SDS011;5776;51.814;4.510;2023-08-21T14:07:31;2.65;;;0.50;;
11439;SDS011;5776;51.814;4.510;2023-08-21T14:09:57;2.22;;;0.60;;
11439;SDS011;5776;51.814;4.510;2023-08-21T14:12:24;2.85;;;0.57;;
11439;SDS011;5776;51.814;4.510;2023-08-21T14:14:50;1.85;;;0.60;;
11439;SDS011;5776;51.814;4.510;2023-08-21T14:17:16;1.90;;;0.70;;
11439;SDS011;5776;51.814;4.510;2023-08-21T14:19:42;1.00;;;0.50;;
11439;SDS011;5776;51.814;4.510;2023-08-21T14:22:08;1.88;;;0.52;;
11439;SDS011;5776;51.814;4.510;2023-08-21T14:24:34;1.33;;;0.68;;
11439;SDS011;5776;51.814;4.510;2023-08-21T14:27:00;2.03;;;0.80;;
11439;SDS011;5776;51.814;4.510;2023-08-21T14:29:26;2.65;;;0.65;;
11439;SDS011;5776;51.814;4.510;2023-08-21T14:31:53;2.88;;;0.88;;
11439;SDS011;5776;51.814;4.510;2023-08-21T14:34:20;2.33;;;0.70;;
11439;SDS011;5776;51.814;4.510;2023-08-21T14:36:47;2.20;;;0.80;;
11439;SDS011;5776;51.814;4.510;2023-08-21T14:39:13;2.65;;;0.90;;
11439;SDS011;5776;51.814;4.510;2023-08-21T14:41:43;2.85;;;0.77;;
11439;SDS011;5776;51.814;4.510;2023-08-21T14:44:08;2.42;;;0.75;;
11439;SDS011;5776;51.814;4.510;2023-08-21T14:46:35;3.17;;;1.00;;
11439;SDS011;5776;51.814;4.510;2023-08-21T14:49:02;2.40;;;0.75;;
11439;SDS011;5776;51.814;4.510;2023-08-21T14:51:28;2.15;;;0.80;;
11439;SDS011;5776;51.814;4.510;2023-08-21T14:53:54;1.58;;;0.60;;
11439;SDS011;5776;51.814;4.510;2023-08-21T14:56:22;3.80;;;0.93;;
11439;SDS011;5776;51.814;4.510;2023-08-21T14:58:48;3.35;;;0.93;;
11439;SDS011;5776;51.814;4.510;2023-08-21T15:01:13;3.60;;;0.90;;
11439;SDS011;5776;51.814;4.510;2023-08-21T15:03:40;2.38;;;0.90;;
11439;SDS011;5776;51.814;4.510;2023-08-21T15:06:07;4.15;;;0.70;;
11439;SDS011;5776;51.814;4.510;2023-08-21T15:08:33;1.65;;;0.63;;
11439;SDS011;5776;51.814;4.510;2023-08-21T15:10:59;4.32;;;0.90;;